sensor_id;sensor_type;location;lat;lon;timestamp;pressure;altitude;pressure_sealevel;temperature;humidity
74790;BME280;63318;52.406;13.416;2023-07-20T00:02:23;100689.79;;;17.07;76.87
74790;BME280;63318;52.406;13.416;2023-07-20T00:04:51;100686.98;;;17.06;76.82
74790;BME280;63318;52.406;13.416;2023-07-20T00:07:19;100691.17;;;17.04;76.67
74790;BME280;63318;52.406;13.416;2023-07-20T00:09:47;100691.84;;;17.03;76.58
74790;BME280;63318;52.406;13.416;2023-07-20T00:12:15;100691.33;;;17.01;76.74
74790;BME280;63318;52.406;13.416;2023-07-20T00:14:44;100693.10;;;17.00;76.90
74790;BME280;63318;52.406;13.416;2023-07-20T00:17:12;100695.49;;;16.98;77.07
74790;BME280;63318;52.406;13.416;2023-07-20T00:19:40;100692.73;;;16.97;76.90
74790;BME280;63318;52.406;13.416;2023-07-20T00:22:08;100693.40;;;16.95;77.08
74790;BME280;63318;52.406;13.416;2023-07-20T00:24:37;100687.42;;;16.93;77.07
74790;BME280;63318;52.406;13.416;2023-07-20T00:27:07;100685.52;;;16.91;76.91
74790;BME280;63318;52.406;13.416;2023-07-20T00:29:35;100685.77;;;16.88;77.08
74790;BME280;63318;52.406;13.416;2023-07-20T00:32:04;100686.39;;;16.86;77.05
74790;BME280;63318;52.406;13.416;2023-07-20T00:34:34;100683.42;;;16.83;77.23
74790;BME280;63318;52.406;13.416;2023-07-20T00:37:03;100679.48;;;16.81;77.32
74790;BME280;63318;52.406;13.416;2023-07-20T00:39:31;100678.98;;;16.80;77.43
74790;BME280;63318;52.406;13.416;2023-07-20T00:41:59;100684.44;;;16.78;77.44
74790;BME280;63318;52.406;13.416;2023-07-20T00:44:28;100686.10;;;16.76;77.46
74790;BME280;63318;52.406;13.416;2023-07-20T00:46:56;100690.96;;;16.74;77.54
74790;BME280;63318;52.406;13.416;2023-07-20T00:49:25;100689.44;;;16.73;77.53
74790;BME280;63318;52.406;13.416;2023-07-20T00:51:53;100687.69;;;16.70;77.63
74790;BME280;63318;52.406;13.416;2023-07-20T00:54:21;100688.54;;;16.68;77.59
74790;BME280;63318;52.406;13.416;2023-07-20T00:56:50;100684.38;;;16.65;77.54
74790;BME280;63318;52.406;13.416;2023-07-20T00:59:18;100684.59;;;16.63;77.59
74790;BME280;63318;52.406;13.416;2023-07-20T01:01:46;100690.09;;;16.61;77.54
74790;BME280;63318;52.406;13.416;2023-07-20T01:04:15;100690.64;;;16.60;77.65
74790;BME280;63318;52.406;13.416;2023-07-20T01:06:48;100688.26;;;16.58;77.79
74790;BME280;63318;52.406;13.416;2023-07-20T01:09:26;100690.89;;;16.56;77.88
74790;BME280;63318;52.406;13.416;2023-07-20T01:12:02;100691.05;;;16.54;77.92
74790;BME280;63318;52.406;13.416;2023-07-20T01:14:33;100695.29;;;16.52;78.05
74790;BME280;63318;52.406;13.416;2023-07-20T01:17:03;100692.73;;;16.52;77.99
74790;BME280;63318;52.406;13.416;2023-07-20T01:19:31;100696.65;;;16.50;78.19
74790;BME280;63318;52.406;13.416;2023-07-20T01:22:03;100693.60;;;16.49;78.27
74790;BME280;63318;52.406;13.416;2023-07-20T01:24:44;100692.50;;;16.48;78.19
74790;BME280;63318;52.406;13.416;2023-07-20T01:27:49;100687.83;;;16.46;78.02
74790;BME280;63318;52.406;13.416;2023-07-20T01:30:43;100691.50;;;16.45;78.32
74790;BME280;63318;52.406;13.416;2023-07-20T01:33:17;100689.04;;;16.42;78.20
74790;BME280;63318;52.406;13.416;2023-07-20T01:35:50;100694.17;;;16.41;78.32
74790;BME280;63318;52.406;13.416;2023-07-20T01:38:20;100695.79;;;16.40;78.42
74790;BME280;63318;52.406;13.416;2023-07-20T01:40:49;100700.01;;;16.38;78.48
74790;BME280;63318;52.406;13.416;2023-07-20T01:43:18;100697.27;;;16.37;78.52
74790;BME280;63318;52.406;13.416;2023-07-20T01:45:47;100691.23;;;16.37;78.63
74790;BME280;63318;52.406;13.416;2023-07-20T01:48:15;100690.63;;;16.36;78.58
74790;BME280;63318;52.406;13.416;2023-07-20T01:50:43;100690.42;;;16.36;78.60
74790;BME280;63318;52.406;13.416;2023-07-20T01:53:12;100690.77;;;16.35;78.81
74790;BME280;63318;52.406;13.416;2023-07-20T01:55:40;100687.05;;;16.34;78.76
74790;BME280;63318;52.406;13.416;2023-07-20T01:58:08;100685.35;;;16.32;78.76
74790;BME280;63318;52.406;13.416;2023-07-20T02:00:38;100686.90;;;16.30;78.81
74790;BME280;63318;52.406;13.416;2023-07-20T02:03:06;100683.61;;;16.30;78.82
74790;BME280;63318;52.406;13.416;2023-07-20T02:05:34;100679.48;;;16.28;78.86
74790;BME280;63318;52.406;13.416;2023-07-20T02:08:02;100684.22;;;16.27;78.72
74790;BME280;63318;52.406;13.416;2023-07-20T02:10:31;100682.98;;;16.25;78.93
74790;BME280;63318;52.406;13.416;2023-07-20T02:12:59;100682.59;;;16.22;78.77
74790;BME280;63318;52.406;13.416;2023-07-20T02:15:29;100681.80;;;16.20;78.87
74790;BME280;63318;52.406;13.416;2023-07-20T02:17:58;100685.94;;;16.18;78.73
74790;BME280;63318;52.406;13.416;2023-07-20T02:20:26;100686.66;;;16.15;78.78
74790;BME280;63318;52.406;13.416;2023-07-20T02:22:54;100687.91;;;16.12;78.63
74790;BME280;63318;52.406;13.416;2023-07-20T02:25:23;100688.92;;;16.09;78.45
74790;BME280;63318;52.406;13.416;2023-07-20T02:27:52;100681.58;;;16.05;78.51
74790;BME280;63318;52.406;13.416;2023-07-20T02:30:20;100679.64;;;16.00;78.56
74790;BME280;63318;52.406;13.416;2023-07-20T02:32:48;100681.34;;;15.96;78.65
74790;BME280;63318;52.406;13.416;2023-07-20T02:35:17;100683.15;;;15.93;78.68
74790;BME280;63318;52.406;13.416;2023-07-20T02:37:45;100681.26;;;15.89;78.68
74790;BME280;63318;52.406;13.416;2023-07-20T02:40:13;100684.19;;;15.86;78.57
74790;BME280;63318;52.406;13.416;2023-07-20T02:42:42;100686.05;;;15.82;78.67
74790;BME280;63318;52.406;13.416;2023-07-20T02:45:10;100690.09;;;15.79;78.73
74790;BME280;63318;52.406;13.416;2023-07-20T02:47:39;100688.98;;;15.75;78.71
74790;BME280;63318;52.406;13.416;2023-07-20T02:50:09;100690.00;;;15.72;78.91
74790;BME280;63318;52.406;13.416;2023-07-20T02:52:37;100699.27;;;15.69;78.76
74790;BME280;63318;52.406;13.416;2023-07-20T02:55:07;100702.32;;;15.67;78.94
74790;BME280;63318;52.406;13.416;2023-07-20T02:57:35;100704.30;;;15.65;79.12
74790;BME280;63318;52.406;13.416;2023-07-20T03:00:05;100706.02;;;15.65;79.17
74790;BME280;63318;52.406;13.416;2023-07-20T03:02:33;100706.85;;;15.64;79.30
74790;BME280;63318;52.406;13.416;2023-07-20T03:05:01;100710.33;;;15.64;79.33
74790;BME280;63318;52.406;13.416;2023-07-20T03:07:30;100712.56;;;15.64;79.57
74790;BME280;63318;52.406;13.416;2023-07-20T03:09:58;100717.54;;;15.65;79.45
74790;BME280;63318;52.406;13.416;2023-07-20T03:12:27;100721.96;;;15.65;79.62
74790;BME280;63318;52.406;13.416;2023-07-20T03:14:55;100723.23;;;15.66;79.74
74790;BME280;63318;52.406;13.416;2023-07-20T03:17:23;100726.35;;;15.67;79.90
74790;BME280;63318;52.406;13.416;2023-07-20T03:19:51;100724.59;;;15.69;79.75
74790;BME280;63318;52.406;13.416;2023-07-20T03:22:20;100725.85;;;15.70;79.77
74790;BME280;63318;52.406;13.416;2023-07-20T03:24:48;100727.14;;;15.70;79.71
74790;BME280;63318;52.406;13.416;2023-07-20T03:27:17;100724.69;;;15.69;79.58
74790;BME280;63318;52.406;13.416;2023-07-20T03:29:45;100726.89;;;15.68;79.90
74790;BME280;63318;52.406;13.416;2023-07-20T03:32:14;100730.09;;;15.68;79.70
74790;BME280;63318;52.406;13.416;2023-07-20T03:34:42;100732.78;;;15.68;79.94
74790;BME280;63318;52.406;13.416;2023-07-20T03:37:11;100732.39;;;15.68;80.16
74790;BME280;63318;52.406;13.416;2023-07-20T03:39:39;100730.27;;;15.67;80.21
74790;BME280;63318;52.406;13.416;2023-07-20T03:42:09;100729.50;;;15.69;80.09
74790;BME280;63318;52.406;13.416;2023-07-20T03:44:37;100727.98;;;15.69;80.11
74790;BME280;63318;52.406;13.416;2023-07-20T03:47:07;100729.26;;;15.70;80.27
74790;BME280;63318;52.406;13.416;2023-07-20T03:49:35;100729.70;;;15.71;80.32
74790;BME280;63318;52.406;13.416;2023-07-20T03:52:04;100727.83;;;15.72;80.21
74790;BME280;63318;52.406;13.416;2023-07-20T03:54:32;100729.92;;;15.73;80.32
74790;BME280;63318;52.406;13.416;2023-07-20T03:57:01;100729.58;;;15.74;80.13
74790;BME280;63318;52.406;13.416;2023-07-20T03:59:29;100732.48;;;15.75;80.23
74790;BME280;63318;52.406;13.416;2023-07-20T04:01:57;100738.95;;;15.76;80.34
74790;BME280;63318;52.406;13.416;2023-07-20T04:04:26;100738.94;;;15.77;80.35
74790;BME280;63318;52.406;13.416;2023-07-20T04:06:54;100734.65;;;15.78;80.26
74790;BME280;63318;52.406;13.416;2023-07-20T04:09:22;100736.72;;;15.78;80.19
74790;BME280;63318;52.406;13.416;2023-07-20T04:11:51;100741.80;;;15.79;80.40
74790;BME280;63318;52.406;13.416;2023-07-20T04:14:19;100740.15;;;15.80;80.60
74790;BME280;63318;52.406;13.416;2023-07-20T04:16:49;100739.02;;;15.81;80.55
74790;BME280;63318;52.406;13.416;2023-07-20T04:19:17;100741.39;;;15.83;80.58
74790;BME280;63318;52.406;13.416;2023-07-20T04:21:45;100741.53;;;15.84;80.43
74790;BME280;63318;52.406;13.416;2023-07-20T04:24:13;100740.48;;;15.87;80.52
74790;BME280;63318;52.406;13.416;2023-07-20T04:26:42;100740.91;;;15.88;80.63
74790;BME280;63318;52.406;13.416;2023-07-20T04:29:10;100744.16;;;15.90;80.75
74790;BME280;63318;52.406;13.416;2023-07-20T04:31:39;100750.39;;;15.93;80.53
74790;BME280;63318;52.406;13.416;2023-07-20T04:34:07;100752.20;;;15.95;80.68
74790;BME280;63318;52.406;13.416;2023-07-20T04:36:35;100755.47;;;15.96;80.79
74790;BME280;63318;52.406;13.416;2023-07-20T04:39:04;100755.34;;;15.98;80.83
74790;BME280;63318;52.406;13.416;2023-07-20T04:41:33;100758.05;;;15.99;80.51
74790;BME280;63318;52.406;13.416;2023-07-20T04:44:02;100755.90;;;16.01;80.64
74790;BME280;63318;52.406;13.416;2023-07-20T04:46:30;100754.77;;;16.01;80.47
74790;BME280;63318;52.406;13.416;2023-07-20T04:48:59;100754.38;;;16.01;80.57
74790;BME280;63318;52.406;13.416;2023-07-20T04:51:27;100752.54;;;16.01;80.46
74790;BME280;63318;52.406;13.416;2023-07-20T04:53:56;100755.60;;;16.02;80.50
74790;BME280;63318;52.406;13.416;2023-07-20T04:56:24;100760.02;;;16.03;80.46
74790;BME280;63318;52.406;13.416;2023-07-20T04:58:52;100753.71;;;16.04;80.42
74790;BME280;63318;52.406;13.416;2023-07-20T05:01:20;100754.38;;;16.04;80.31
74790;BME280;63318;52.406;13.416;2023-07-20T05:03:48;100750.69;;;16.05;80.47
74790;BME280;63318;52.406;13.416;2023-07-20T05:06:17;100753.38;;;16.07;80.37
74790;BME280;63318;52.406;13.416;2023-07-20T05:08:45;100755.35;;;16.09;80.33
74790;BME280;63318;52.406;13.416;2023-07-20T05:11:13;100754.39;;;16.12;80.31
74790;BME280;63318;52.406;13.416;2023-07-20T05:13:41;100754.33;;;16.15;80.48
74790;BME280;63318;52.406;13.416;2023-07-20T05:16:10;100755.72;;;16.18;80.29
74790;BME280;63318;52.406;13.416;2023-07-20T05:18:38;100759.75;;;16.21;80.17
74790;BME280;63318;52.406;13.416;2023-07-20T05:21:06;100765.64;;;16.26;80.15
74790;BME280;63318;52.406;13.416;2023-07-20T05:23:35;100762.29;;;16.32;80.25
74790;BME280;63318;52.406;13.416;2023-07-20T05:26:03;100764.34;;;16.38;80.31
74790;BME280;63318;52.406;13.416;2023-07-20T05:28:31;100767.41;;;16.44;80.24
74790;BME280;63318;52.406;13.416;2023-07-20T05:31:01;100772.57;;;16.51;80.22
74790;BME280;63318;52.406;13.416;2023-07-20T05:33:32;100771.23;;;16.58;80.03
74790;BME280;63318;52.406;13.416;2023-07-20T05:36:02;100771.58;;;16.63;79.79
74790;BME280;63318;52.406;13.416;2023-07-20T05:38:30;100772.22;;;16.67;79.67
74790;BME280;63318;52.406;13.416;2023-07-20T05:41:01;100769.27;;;16.70;79.45
74790;BME280;63318;52.406;13.416;2023-07-20T05:43:30;100767.27;;;16.73;79.53
74790;BME280;63318;52.406;13.416;2023-07-20T05:45:58;100770.38;;;16.77;79.38
74790;BME280;63318;52.406;13.416;2023-07-20T05:48:27;100773.71;;;16.81;79.13
74790;BME280;63318;52.406;13.416;2023-07-20T05:50:55;100776.40;;;16.85;79.30
74790;BME280;63318;52.406;13.416;2023-07-20T05:53:24;100780.23;;;16.95;79.15
74790;BME280;63318;52.406;13.416;2023-07-20T05:55:55;100784.79;;;17.02;79.01
74790;BME280;63318;52.406;13.416;2023-07-20T05:58:23;100784.46;;;17.06;78.76
74790;BME280;63318;52.406;13.416;2023-07-20T06:00:52;100788.77;;;17.09;78.62
74790;BME280;63318;52.406;13.416;2023-07-20T06:03:21;100788.77;;;17.11;78.58
74790;BME280;63318;52.406;13.416;2023-07-20T06:05:49;100790.51;;;17.14;78.50
74790;BME280;63318;52.406;13.416;2023-07-20T06:08:17;100792.67;;;17.15;78.25
74790;BME280;63318;52.406;13.416;2023-07-20T06:10:49;100792.21;;;17.17;77.89
74790;BME280;63318;52.406;13.416;2023-07-20T06:13:17;100792.60;;;17.20;77.75
74790;BME280;63318;52.406;13.416;2023-07-20T06:15:45;100793.86;;;17.23;77.82
74790;BME280;63318;52.406;13.416;2023-07-20T06:18:14;100791.20;;;17.27;77.81
74790;BME280;63318;52.406;13.416;2023-07-20T06:20:42;100789.54;;;17.31;77.67
74790;BME280;63318;52.406;13.416;2023-07-20T06:23:10;100792.30;;;17.37;77.53
74790;BME280;63318;52.406;13.416;2023-07-20T06:25:38;100795.77;;;17.47;77.57
74790;BME280;63318;52.406;13.416;2023-07-20T06:28:07;100798.53;;;17.63;77.63
74790;BME280;63318;52.406;13.416;2023-07-20T06:30:37;100794.80;;;17.77;77.23
74790;BME280;63318;52.406;13.416;2023-07-20T06:33:05;100790.02;;;17.91;77.04
74790;BME280;63318;52.406;13.416;2023-07-20T06:35:33;100792.23;;;17.99;76.79
74790;BME280;63318;52.406;13.416;2023-07-20T06:38:01;100790.70;;;18.01;76.36
74790;BME280;63318;52.406;13.416;2023-07-20T06:40:30;100792.16;;;18.00;76.31
74790;BME280;63318;52.406;13.416;2023-07-20T06:42:58;100794.35;;;17.96;75.99
74790;BME280;63318;52.406;13.416;2023-07-20T06:45:27;100802.27;;;17.92;76.06
74790;BME280;63318;52.406;13.416;2023-07-20T06:47:55;100809.64;;;17.89;75.97
74790;BME280;63318;52.406;13.416;2023-07-20T06:50:23;100813.23;;;17.88;75.85
74790;BME280;63318;52.406;13.416;2023-07-20T06:52:51;100809.91;;;17.86;75.79
74790;BME280;63318;52.406;13.416;2023-07-20T06:55:20;100807.57;;;17.89;75.69
74790;BME280;63318;52.406;13.416;2023-07-20T06:57:48;100814.17;;;17.92;75.48
74790;BME280;63318;52.406;13.416;2023-07-20T07:00:17;100811.84;;;17.95;75.41
74790;BME280;63318;52.406;13.416;2023-07-20T07:02:45;100810.06;;;18.07;75.14
74790;BME280;63318;52.406;13.416;2023-07-20T07:05:13;100810.98;;;18.33;74.81
74790;BME280;63318;52.406;13.416;2023-07-20T07:07:42;100810.02;;;18.65;74.70
74790;BME280;63318;52.406;13.416;2023-07-20T07:10:10;100809.23;;;19.02;73.96
74790;BME280;63318;52.406;13.416;2023-07-20T07:12:39;100806.54;;;19.38;73.32
74790;BME280;63318;52.406;13.416;2023-07-20T07:15:11;100804.35;;;19.56;72.24
74790;BME280;63318;52.406;13.416;2023-07-20T07:17:39;100809.95;;;19.59;71.70
74790;BME280;63318;52.406;13.416;2023-07-20T07:20:10;100811.95;;;19.60;70.98
74790;BME280;63318;52.406;13.416;2023-07-20T07:22:38;100813.02;;;19.80;70.37
74790;BME280;63318;52.406;13.416;2023-07-20T07:25:08;100808.91;;;20.08;70.11
74790;BME280;63318;52.406;13.416;2023-07-20T07:27:36;100808.89;;;20.33;69.95
74790;BME280;63318;52.406;13.416;2023-07-20T07:30:07;100813.85;;;20.38;69.23
74790;BME280;63318;52.406;13.416;2023-07-20T07:32:35;100815.88;;;20.38;68.64
74790;BME280;63318;52.406;13.416;2023-07-20T07:35:04;100819.41;;;20.40;68.15
74790;BME280;63318;52.406;13.416;2023-07-20T07:37:33;100818.92;;;20.47;68.05
74790;BME280;63318;52.406;13.416;2023-07-20T07:40:01;100817.80;;;20.54;67.72
74790;BME280;63318;52.406;13.416;2023-07-20T07:42:30;100812.02;;;20.61;66.92
74790;BME280;63318;52.406;13.416;2023-07-20T07:44:59;100811.15;;;20.71;66.89
74790;BME280;63318;52.406;13.416;2023-07-20T07:47:27;100810.37;;;20.79;66.25
74790;BME280;63318;52.406;13.416;2023-07-20T07:49:55;100811.40;;;20.88;65.73
74790;BME280;63318;52.406;13.416;2023-07-20T07:52:23;100817.19;;;20.93;65.63
74790;BME280;63318;52.406;13.416;2023-07-20T07:54:52;100819.13;;;20.96;65.06
74790;BME280;63318;52.406;13.416;2023-07-20T07:57:20;100817.48;;;21.00;65.28
74790;BME280;63318;52.406;13.416;2023-07-20T07:59:48;100816.98;;;21.09;65.38
74790;BME280;63318;52.406;13.416;2023-07-20T08:02:17;100816.38;;;21.17;64.80
74790;BME280;63318;52.406;13.416;2023-07-20T08:04:45;100821.06;;;21.15;64.21
74790;BME280;63318;52.406;13.416;2023-07-20T08:07:13;100821.20;;;21.15;63.84
74790;BME280;63318;52.406;13.416;2023-07-20T08:09:42;100822.42;;;21.19;63.95
74790;BME280;63318;52.406;13.416;2023-07-20T08:12:10;100822.88;;;21.22;63.32
74790;BME280;63318;52.406;13.416;2023-07-20T08:14:39;100822.19;;;21.38;63.22
74790;BME280;63318;52.406;13.416;2023-07-20T08:17:07;100823.05;;;21.58;62.49
74790;BME280;63318;52.406;13.416;2023-07-20T08:19:38;100826.04;;;21.71;62.06
74790;BME280;63318;52.406;13.416;2023-07-20T08:22:08;100829.41;;;21.72;61.99
74790;BME280;63318;52.406;13.416;2023-07-20T08:24:40;100833.85;;;21.70;62.15
74790;BME280;63318;52.406;13.416;2023-07-20T08:27:09;100839.29;;;21.65;62.17
74790;BME280;63318;52.406;13.416;2023-07-20T08:29:38;100844.77;;;21.60;62.45
74790;BME280;63318;52.406;13.416;2023-07-20T08:32:08;100848.40;;;21.59;62.26
74790;BME280;63318;52.406;13.416;2023-07-20T08:34:36;100851.31;;;21.60;61.91
74790;BME280;63318;52.406;13.416;2023-07-20T08:37:05;100853.82;;;21.55;61.60
74790;BME280;63318;52.406;13.416;2023-07-20T08:39:34;100850.98;;;21.47;60.88
74790;BME280;63318;52.406;13.416;2023-07-20T08:42:04;100852.18;;;21.42;61.33
74790;BME280;63318;52.406;13.416;2023-07-20T08:44:34;100852.04;;;21.49;60.90
74790;BME280;63318;52.406;13.416;2023-07-20T08:47:05;100848.77;;;21.82;61.13
74790;BME280;63318;52.406;13.416;2023-07-20T08:49:35;100850.20;;;22.13;60.34
74790;BME280;63318;52.406;13.416;2023-07-20T08:52:05;100849.83;;;22.23;59.85
74790;BME280;63318;52.406;13.416;2023-07-20T08:54:34;100848.55;;;22.30;59.82
74790;BME280;63318;52.406;13.416;2023-07-20T08:57:05;100850.77;;;22.44;59.40
74790;BME280;63318;52.406;13.416;2023-07-20T08:59:37;100841.71;;;22.74;58.99
74790;BME280;63318;52.406;13.416;2023-07-20T09:02:09;100846.04;;;22.87;58.50
74790;BME280;63318;52.406;13.416;2023-07-20T09:04:41;100846.20;;;22.95;58.18
74790;BME280;63318;52.406;13.416;2023-07-20T09:07:11;100851.59;;;22.94;57.65
74790;BME280;63318;52.406;13.416;2023-07-20T09:09:42;100851.13;;;22.91;57.19
74790;BME280;63318;52.406;13.416;2023-07-20T09:12:17;100851.67;;;22.99;57.30
74790;BME280;63318;52.406;13.416;2023-07-20T09:14:46;100847.52;;;23.19;57.32
74790;BME280;63318;52.406;13.416;2023-07-20T09:17:17;100843.02;;;23.35;56.43
74790;BME280;63318;52.406;13.416;2023-07-20T09:19:57;100848.08;;;23.52;56.68
74790;BME280;63318;52.406;13.416;2023-07-20T09:22:32;100847.15;;;23.78;56.42
74790;BME280;63318;52.406;13.416;2023-07-20T09:25:01;100841.88;;;23.89;55.66
74790;BME280;63318;52.406;13.416;2023-07-20T09:27:36;100843.43;;;23.97;55.40
74790;BME280;63318;52.406;13.416;2023-07-20T09:30:06;100846.12;;;24.08;54.16
74790;BME280;63318;52.406;13.416;2023-07-20T09:32:40;100849.05;;;24.20;54.20
74790;BME280;63318;52.406;13.416;2023-07-20T09:35:13;100845.52;;;24.39;53.37
74790;BME280;63318;52.406;13.416;2023-07-20T09:37:50;100846.90;;;24.51;53.24
74790;BME280;63318;52.406;13.416;2023-07-20T09:40:19;100840.71;;;24.50;52.26
74790;BME280;63318;52.406;13.416;2023-07-20T09:42:49;100842.20;;;24.45;52.77
74790;BME280;63318;52.406;13.416;2023-07-20T09:45:21;100840.70;;;24.44;52.33
74790;BME280;63318;52.406;13.416;2023-07-20T09:47:49;100837.51;;;24.52;52.11
74790;BME280;63318;52.406;13.416;2023-07-20T09:50:18;100840.84;;;24.54;51.65
74790;BME280;63318;52.406;13.416;2023-07-20T09:52:48;100836.90;;;24.65;51.82
74790;BME280;63318;52.406;13.416;2023-07-20T09:55:17;100838.21;;;24.72;51.95
74790;BME280;63318;52.406;13.416;2023-07-20T09:57:47;100838.23;;;24.73;51.17
74790;BME280;63318;52.406;13.416;2023-07-20T10:00:18;100835.20;;;24.80;50.71
74790;BME280;63318;52.406;13.416;2023-07-20T10:02:46;100839.23;;;24.92;50.65
74790;BME280;63318;52.406;13.416;2023-07-20T10:05:17;100842.00;;;24.93;50.50
74790;BME280;63318;52.406;13.416;2023-07-20T10:07:49;100842.77;;;24.87;49.56
74790;BME280;63318;52.406;13.416;2023-07-20T10:10:19;100840.27;;;24.79;49.31
74790;BME280;63318;52.406;13.416;2023-07-20T10:12:49;100846.84;;;24.70;49.75
74790;BME280;63318;52.406;13.416;2023-07-20T10:15:23;100844.39;;;24.63;50.14
74790;BME280;63318;52.406;13.416;2023-07-20T10:18:02;100848.34;;;24.56;49.68
74790;BME280;63318;52.406;13.416;2023-07-20T10:20:31;100845.10;;;24.47;49.56
74790;BME280;63318;52.406;13.416;2023-07-20T10:23:01;100845.03;;;24.36;50.07
74790;BME280;63318;52.406;13.416;2023-07-20T10:25:30;100840.77;;;24.26;49.69
74790;BME280;63318;52.406;13.416;2023-07-20T10:28:00;100839.84;;;24.21;49.46
74790;BME280;63318;52.406;13.416;2023-07-20T10:30:28;100839.16;;;24.23;49.61
74790;BME280;63318;52.406;13.416;2023-07-20T10:32:57;100839.64;;;24.25;49.94
74790;BME280;63318;52.406;13.416;2023-07-20T10:35:26;100843.00;;;24.30;49.90
74790;BME280;63318;52.406;13.416;2023-07-20T10:37:59;100838.33;;;24.31;49.53
74790;BME280;63318;52.406;13.416;2023-07-20T10:40:37;100838.73;;;24.26;49.33
74790;BME280;63318;52.406;13.416;2023-07-20T10:43:07;100845.64;;;24.25;49.38
74790;BME280;63318;52.406;13.416;2023-07-20T10:45:41;100841.69;;;24.24;49.20
74790;BME280;63318;52.406;13.416;2023-07-20T10:48:16;100843.77;;;24.23;49.25
74790;BME280;63318;52.406;13.416;2023-07-20T10:50:45;100838.98;;;24.11;48.77
74790;BME280;63318;52.406;13.416;2023-07-20T10:53:15;100843.27;;;24.00;49.30
74790;BME280;63318;52.406;13.416;2023-07-20T10:55:44;100847.43;;;23.90;49.48
74790;BME280;63318;52.406;13.416;2023-07-20T10:58:13;100848.18;;;23.82;50.00
74790;BME280;63318;52.406;13.416;2023-07-20T11:00:58;100845.92;;;23.77;49.81
74790;BME280;63318;52.406;13.416;2023-07-20T11:03:30;100851.27;;;23.74;49.94
74790;BME280;63318;52.406;13.416;2023-07-20T11:06:00;100847.89;;;23.70;50.01
74790;BME280;63318;52.406;13.416;2023-07-20T11:08:48;100847.68;;;23.63;50.09
74790;BME280;63318;52.406;13.416;2023-07-20T11:11:27;100852.15;;;23.58;50.29
74790;BME280;63318;52.406;13.416;2023-07-20T11:13:57;100856.90;;;23.49;50.38
74790;BME280;63318;52.406;13.416;2023-07-20T11:16:43;100856.98;;;23.39;50.54
74790;BME280;63318;52.406;13.416;2023-07-20T11:19:20;100861.67;;;23.29;50.30
74790;BME280;63318;52.406;13.416;2023-07-20T11:21:52;100862.27;;;23.20;50.42
74790;BME280;63318;52.406;13.416;2023-07-20T11:24:21;100868.05;;;23.14;50.63
74790;BME280;63318;52.406;13.416;2023-07-20T11:26:51;100870.39;;;23.08;50.68
74790;BME280;63318;52.406;13.416;2023-07-20T11:29:21;100874.48;;;23.00;50.42
74790;BME280;63318;52.406;13.416;2023-07-20T11:31:50;100874.44;;;22.92;50.52
74790;BME280;63318;52.406;13.416;2023-07-20T11:34:20;100876.57;;;22.85;50.71
74790;BME280;63318;52.406;13.416;2023-07-20T11:36:50;100878.42;;;22.78;50.89
74790;BME280;63318;52.406;13.416;2023-07-20T11:39:21;100877.92;;;22.70;51.06
74790;BME280;63318;52.406;13.416;2023-07-20T11:41:51;100881.52;;;22.67;51.43
74790;BME280;63318;52.406;13.416;2023-07-20T11:44:21;100883.02;;;22.63;51.49
74790;BME280;63318;52.406;13.416;2023-07-20T11:46:49;100878.30;;;22.56;51.58
74790;BME280;63318;52.406;13.416;2023-07-20T11:49:18;100873.06;;;22.53;51.69
74790;BME280;63318;52.406;13.416;2023-07-20T11:51:46;100870.38;;;22.55;51.87
74790;BME280;63318;52.406;13.416;2023-07-20T11:54:14;100866.78;;;22.62;51.89
74790;BME280;63318;52.406;13.416;2023-07-20T11:56:44;100867.38;;;22.82;52.43
74790;BME280;63318;52.406;13.416;2023-07-20T11:59:12;100860.23;;;23.02;52.34
74790;BME280;63318;52.406;13.416;2023-07-20T12:01:41;100858.04;;;23.22;51.80
74790;BME280;63318;52.406;13.416;2023-07-20T12:04:09;100862.17;;;23.29;51.34
74790;BME280;63318;52.406;13.416;2023-07-20T12:06:37;100861.59;;;23.33;51.03
74790;BME280;63318;52.406;13.416;2023-07-20T12:09:06;100857.05;;;23.38;51.00
74790;BME280;63318;52.406;13.416;2023-07-20T12:11:42;100859.61;;;23.42;50.91
74790;BME280;63318;52.406;13.416;2023-07-20T12:14:11;100859.05;;;23.51;50.90
74790;BME280;63318;52.406;13.416;2023-07-20T12:16:39;100856.75;;;23.55;50.75
74790;BME280;63318;52.406;13.416;2023-07-20T12:19:09;100858.35;;;23.57;50.80
74790;BME280;63318;52.406;13.416;2023-07-20T12:21:39;100859.56;;;23.57;50.74
74790;BME280;63318;52.406;13.416;2023-07-20T12:24:10;100858.19;;;23.57;50.94
74790;BME280;63318;52.406;13.416;2023-07-20T12:26:39;100862.46;;;23.59;50.83
74790;BME280;63318;52.406;13.416;2023-07-20T12:29:08;100859.93;;;23.58;50.67
74790;BME280;63318;52.406;13.416;2023-07-20T12:31:38;100864.14;;;23.58;50.74
74790;BME280;63318;52.406;13.416;2023-07-20T12:34:06;100864.21;;;23.60;50.21
74790;BME280;63318;52.406;13.416;2023-07-20T12:36:34;100863.98;;;23.64;50.21
74790;BME280;63318;52.406;13.416;2023-07-20T12:39:02;100859.66;;;23.63;49.99
74790;BME280;63318;52.406;13.416;2023-07-20T12:41:30;100859.79;;;23.61;49.44
74790;BME280;63318;52.406;13.416;2023-07-20T12:43:59;100862.05;;;23.58;49.43
74790;BME280;63318;52.406;13.416;2023-07-20T12:46:27;100863.73;;;23.55;49.00
74790;BME280;63318;52.406;13.416;2023-07-20T12:48:55;100856.23;;;23.54;49.45
74790;BME280;63318;52.406;13.416;2023-07-20T12:51:23;100860.67;;;23.58;49.77
74790;BME280;63318;52.406;13.416;2023-07-20T12:53:52;100858.71;;;23.69;49.50